• Join FlightAware (Why Join?)
  • Login
  • US Flag 
03:27PM EDT


 

Airport Tracker/Info


-or-


 

Live Flight TrackerFlight Track Log ✈ FDX437 ✈ 22-Aug-2013 ✈ KCLE - KLCK

Flight Track Log - Related Links

Times and Time Zones

All times are in EDT time to prevent confusion due to time zone crossing. See the FDX437 flight status page for this flight to view local times or setup timezone preferences in your user account.

Time Position Orientation Groundspeed Altitude Reporting Facility
EDT Latitude Longitude Course Direction KTS MPH feet Rate Location/Type
07:26AM 41.2130 -81.9520 192° South 324 373 10,700  Level FlightAware
07:26AM 41.1640 -81.9650 191° South 324 373 10,700 1,020 Level FlightAware
07:27AM 41.0925 -81.9836 191° South 369 425 12,000 780 Climbing Indianapolis Center
07:28AM 40.9861 -82.0156 193° South 386 444 12,000 -60 Level Indianapolis Center
07:29AM 40.8833 -82.0542 196° South 384 442 11,900 -60 Descending Indianapolis Center
07:30AM 40.7922 -82.1253 211° Southwest 375 432 11,900  Level Indianapolis Center
07:31AM 40.6992 -82.1931 209° Southwest 378 435 12,000  Climbing Indianapolis Center
07:32AM 40.6056 -82.2608 209° Southwest 380 437 12,000  Level Indianapolis Center
07:33AM 40.5111 -82.3289 209° Southwest 381 438 12,000 -960 Level Indianapolis Center
07:38AM 40.0680 -82.5570 209° Southwest 273 314 6,300 -1,140 Descending FlightAware
07:39AM 40.0460 -82.5670 199° South 270 311 5,700 -1,680 Descending FlightAware
07:39AM 40.0220 -82.5790 201° Southwest 267 307 5,200 -1,500 Descending FlightAware
07:39AM 39.9990 -82.5900 200° South 264 304 4,700 -1,620 Descending FlightAware
07:39AM 39.9880 -82.5970 206° Southwest 262 302 4,400 -1,620 Descending FlightAware
07:40AM 39.9840 -82.6020 224° Southwest 261 300 4,300 -1,800 Descending FlightAware
07:40AM 39.9790 -82.6070 217° Southwest 259 298 4,100 -2,040 Descending FlightAware
07:40AM 39.9730 -82.6220 242° Southwest 256 295 3,800 -1,620 Descending FlightAware
07:40AM 39.9670 -82.6500 254° West 254 292 3,300 -1,080 Descending FlightAware
07:41AM 39.9590 -82.6820 252° West 247 284 3,000 -480 Descending FlightAware
07:41AM 39.9500 -82.7210 253° West 221 254 2,900 -120 Descending FlightAware
07:42AM 39.9410 -82.7590 253° West 211 243 2,900 120 Level FlightAware
07:42AM 39.9108 -82.7944 253° West 212 244 3,100 -180 Climbing Indianapolis Center
07:43AM 39.8753 -82.8419 226° Southwest 194 223 2,600 -840 Descending Indianapolis Center
07:44AM 39.8422 -82.8853 225° Southwest 182 209 1,400 -780 Descending Indianapolis Center
07:45AM 39.8178 -82.9192 227° Southwest 169 194 1,100 -300 Descending Indianapolis Center